Airfield :
LOGIN :

Register | Disclaimer

   EN    FR    IT 

 










Legend :    VFR   Marginal VFR   IFR   Intensive IFR   Very Intensive IFR
Visi :
Ceiling :
>= 8 km
>= 3000ft
5 to 8 km
1000 to 3000 ft
1500m to 5 km
500 to 1000 ft
800 to 1500m
200 to 500 ft
< 800m
< 200 ft
Symbols :   Thunderstorms  Fog  Heavy snow  Heavy precipitations  Wind > 20 kt
SIGMETs :     Misc.  Thunderstorms  Icing  Turbulence  Mountain Waves  Volcanic Ashes






- Airport Elevation : 313 ft
- IATA code : LEH


LFOH - Le Havre Octeville

CURRENT METAR :
  • 232200Z AUTO 19006KT 160V220 9999 FEW022 OVC030 11/09 Q1027

EXPIRED METARs :
  • 232130Z AUTO 19005KT 9999 FEW020 OVC027 11/09 Q1027
  • 232100Z AUTO 19006KT 9999 FEW020 OVC027 11/09 Q1027
  • 232030Z AUTO 19005KT 9999 OVC026 11/09 Q1027
  • 232000Z AUTO 19006KT 9999 OVC022 11/10 Q1027
  • 231930Z AUTO 20007KT 9999 OVC017 11/09 Q1027

TAF TAF LFOH
Valid from the 23 at 12:00 until the 24 at 12:00 UTC


231100Z 2312/2412 VRB03KT 9999 BKN045
PROB40
TEMPO 2319/2324 BKN007
ATIS : +33 2 35 54 64 93



MET'MAP, your aeronautical weather chart ! - Copyright ORBIFLY December 2007 - Disclaimer

ORBIFLY MET'MAP TEAM :

Programming & Development : Alexandra Zaïnal
Concept & original design : Baudouin d'Aumeries
Assistance for programming : Marc-Olivier Méhu
Technical & hardware support : Manuel Goepfert

Contact : metmap@orbifly.com




SOURCES & CREDITS :

   NOAA